Time;durP1;ratioP1;P1;durP2;ratioP2;P2;SDS_P1;SDS_P2;PMS_P1;PMS_P2;Temp;Humidity;BMP_temperature;BMP_pressure;BME280_temperature;BME280_humidity;BME280_pressure;Samples;Min_cycle;Max_cycle;Signal;HPM_P1;HPM_P2
2022/03/25 00:01:45;;;;;;;30.00;12.80;;;6.80;38.30;;;;;;6159141;23;19904;-80
2022/03/25 00:04:11;;;;;;;21.10;8.95;;;6.80;38.60;;;;;;6158807;23;20009;-81
2022/03/25 00:06:37;;;;;;;18.88;9.85;;;6.80;39.10;;;;;;6184495;23;19990;-80
2022/03/25 00:09:03;;;;;;;20.45;9.40;;;6.70;39.00;;;;;;6158831;23;19990;-79
2022/03/25 00:11:28;;;;;;;15.45;8.02;;;6.70;39.00;;;;;;6177992;23;20021;-81
2022/03/25 00:13:55;;;;;;;;;;;6.80;38.80;;;;;;6183941;23;19994;-80
2022/03/25 00:16:21;;;;;;;14.63;7.60;;;7.00;39.00;;;;;;6183811;23;19904;-81
2022/03/25 00:18:47;;;;;;;25.92;10.18;;;7.00;38.60;;;;;;6184057;23;19993;-79
2022/03/25 00:21:13;;;;;;;26.92;9.23;;;6.90;38.30;;;;;;6184132;23;20049;-80
2022/03/25 00:23:39;;;;;;;24.50;7.78;;;6.90;38.60;;;;;;6183583;23;20009;-81
2022/03/25 00:26:05;;;;;;;25.45;11.52;;;7.00;38.40;;;;;;6184150;23;20013;-80
2022/03/25 00:28:31;;;;;;;;;;;6.90;38.20;;;;;;6183895;23;20024;-80
2022/03/25 00:30:56;;;;;;;51.65;19.92;;;6.90;38.70;;;;;;6184229;23;19889;-81
2022/03/25 00:33:23;;;;;;;28.77;10.18;;;6.70;39.30;;;;;;6158650;23;19998;-79
2022/03/25 00:35:48;;;;;;;;;;;6.80;39.40;;;;;;6158815;23;19990;-81
2022/03/25 00:38:14;;;;;;;22.55;9.30;;;6.80;39.20;;;;;;6184089;23;19908;-80
2022/03/25 00:40:40;;;;;;;53.65;19.77;;;6.80;39.00;;;;;;6183451;23;19990;-81
2022/03/25 00:43:09;;;;;;;37.08;14.57;;;6.70;39.40;;;;;;6185797;23;19997;-80
2022/03/25 00:45:35;;;;;;;16.77;8.00;;;6.70;39.70;;;;;;6161895;23;20037;-78
2022/03/25 00:48:01;;;;;;;19.42;8.65;;;6.70;40.00;;;;;;6161268;23;19998;-80
2022/03/25 00:50:27;;;;;;;54.78;18.85;;;6.70;39.50;;;;;;6187329;23;20006;-80
2022/03/25 00:52:53;;;;;;;30.67;12.00;;;6.70;39.40;;;;;;6161182;23;20005;-80
2022/03/25 00:55:19;;;;;;;22.20;10.77;;;6.70;40.00;;;;;;6187159;23;20014;-80
2022/03/25 00:57:45;;;;;;;;;;;6.50;40.30;;;;;;6187370;23;19986;-80
2022/03/25 01:00:11;;;;;;;18.15;7.97;;;6.50;40.40;;;;;;6186880;23;19888;-82
2022/03/25 01:02:38;;;;;;;19.75;9.43;;;6.40;40.50;;;;;;6161964;23;20036;-79
2022/03/25 01:05:04;;;;;;;19.25;8.50;;;6.40;40.60;;;;;;6162043;23;20001;-79
2022/03/25 01:07:30;;;;;;;14.32;6.80;;;6.40;40.70;;;;;;6187240;23;20006;-78
2022/03/25 01:09:56;;;;;;;17.77;7.63;;;6.30;40.50;;;;;;6187255;23;20005;-80
2022/03/25 01:12:22;;;;;;;17.85;7.60;;;6.30;40.70;;;;;;6186783;23;20045;-79
2022/03/25 01:14:49;;;;;;;20.77;9.13;;;6.30;41.00;;;;;;6162215;23;20001;-77
2022/03/25 01:17:16;;;;;;;20.60;6.82;;;6.20;41.00;;;;;;6187425;23;20009;-79
2022/03/25 01:19:43;;;;;;;20.70;7.07;;;6.20;41.30;;;;;;6187685;23;20032;-76
2022/03/25 01:22:08;;;;;;;15.75;6.65;;;6.20;41.30;;;;;;6187625;23;19991;-76
2022/03/25 03:09:55;;;;;;;15.07;5.47;;;4.70;47.50;;;;;;6163765;23;20024;31
2022/03/25 03:12:22;;;;;;;21.33;7.28;;;4.60;47.70;;;;;;6143226;23;20040;-80
2022/03/25 03:14:48;;;;;;;25.15;9.20;;;4.50;48.00;;;;;;6142144;23;20006;-80
2022/03/25 03:17:15;;;;;;;26.20;11.20;;;4.40;48.00;;;;;;6129137;23;20037;-79
2022/03/25 03:19:41;;;;;;;26.40;9.88;;;4.30;48.40;;;;;;6108548;23;20045;-78
2022/03/25 03:22:07;;;;;;;18.70;8.40;;;4.20;48.70;;;;;;6129211;23;20020;-78
2022/03/25 03:24:32;;;;;;;16.95;8.02;;;4.20;49.10;;;;;;6155353;23;20009;-79
2022/03/25 03:26:58;;;;;;;23.30;7.65;;;4.20;49.20;;;;;;6169943;23;20021;-81
2022/03/25 03:29:25;;;;;;;17.65;7.97;;;4.10;49.20;;;;;;6159034;23;19990;-81
2022/03/25 03:31:51;;;;;;;17.92;7.90;;;4.20;49.30;;;;;;6184764;23;19990;-80
2022/03/25 03:34:17;;;;;;;17.65;7.95;;;4.10;49.30;;;;;;6184490;23;20037;-80
2022/03/25 03:36:43;;;;;;;13.60;6.50;;;4.00;49.50;;;;;;6183107;23;19993;-80
2022/03/25 03:39:11;;;;;;;;;;;4.00;49.70;;;;;;6183445;23;19992;-79
2022/03/25 03:41:38;;;;;;;12.52;5.88;;;3.90;49.90;;;;;;6183648;23;19927;-80
2022/03/25 03:44:05;;;;;;;17.48;5.72;;;3.80;50.40;;;;;;6182423;23;19994;-80
2022/03/25 03:46:32;;;;;;;16.33;5.63;;;3.90;50.40;;;;;;6157134;23;19986;-81
2022/03/25 03:48:57;;;;;;;;;;;3.90;50.40;;;;;;6183725;23;20041;-80
2022/03/25 03:51:23;;;;;;;10.93;5.15;;;3.90;50.50;;;;;;6183222;23;19912;-81
2022/03/25 03:53:49;;;;;;;;;;;4.10;50.80;;;;;;6184179;23;19989;-80
2022/03/25 03:56:15;;;;;;;11.55;4.80;;;4.10;50.40;;;;;;6158037;23;19923;-80
2022/03/25 03:58:41;;;;;;;12.52;6.30;;;4.00;50.20;;;;;;6183577;23;19989;-80
2022/03/25 04:01:07;;;;;;;16.35;6.85;;;4.00;50.10;;;;;;6159693;23;19989;-78
2022/03/25 04:03:33;;;;;;;14.55;6.72;;;3.90;50.00;;;;;;6158428;23;19985;-81
2022/03/25 04:06:00;;;;;;;16.50;5.65;;;3.90;50.30;;;;;;6158671;23;20008;-79
2022/03/25 04:08:26;;;;;;;23.02;6.65;;;3.80;50.50;;;;;;6183985;23;20000;-78
2022/03/25 04:10:52;;;;;;;12.38;5.18;;;3.80;50.90;;;;;;6158966;23;20009;-81
2022/03/25 04:13:18;;;;;;;;;;;3.80;51.50;;;;;;6183213;23;20001;-80
2022/03/25 04:15:44;;;;;;;14.95;5.25;;;3.90;51.10;;;;;;6181871;23;19892;-81
2022/03/25 04:18:09;;;;;;;;;;;3.90;50.90;;;;;;6182251;23;20009;-79
2022/03/25 04:20:35;;;;;;;11.18;4.93;;;3.90;50.70;;;;;;6184174;23;19905;-79
2022/03/25 04:23:01;;;;;;;11.50;4.93;;;3.90;50.90;;;;;;6184429;23;20021;-81
2022/03/25 05:26:29;;;;;;;13.45;4.53;;;5.00;53.00;;;;;;6222879;23;20021;-80
2022/03/25 05:28:55;;;;;;;8.05;4.30;;;5.10;52.60;;;;;;6244267;23;19985;-79
2022/03/25 05:31:21;;;;;;;14.88;5.20;;;5.10;52.40;;;;;;6245916;23;20044;-80
2022/03/25 05:33:47;;;;;;;17.17;6.50;;;5.40;52.00;;;;;;6246393;23;19985;-78
2022/03/25 05:36:12;;;;;;;17.90;6.25;;;5.50;51.80;;;;;;6246119;23;20012;-80
2022/03/25 05:38:38;;;;;;;15.40;7.05;;;5.70;51.80;;;;;;6243731;23;20068;-80
2022/03/25 05:41:04;;;;;;;;;;;5.80;51.40;;;;;;6242557;23;20442;-79
2022/03/25 05:43:30;;;;;;;18.30;7.32;;;6.40;50.90;;;;;;6215532;23;19907;-80
2022/03/25 05:45:56;;;;;;;20.77;7.13;;;7.00;49.60;;;;;;6244570;23;20040;-80
2022/03/25 05:48:22;;;;;;;16.10;6.60;;;7.70;47.70;;;;;;6219595;23;19993;-78
2022/03/25 05:50:49;;;;;;;13.25;6.65;;;8.30;46.10;;;;;;6219467;23;19997;-78
2022/03/25 05:53:15;;;;;;;17.08;7.07;;;8.90;44.70;;;;;;6242274;23;20012;-78
2022/03/25 05:55:41;;;;;;;14.07;5.43;;;9.50;43.40;;;;;;6241876;23;19984;-79
2022/03/25 05:58:07;;;;;;;;;;;10.20;41.30;;;;;;6217538;23;20009;-78
2022/03/25 06:00:39;;;;;;;17.13;5.38;;;10.60;39.00;;;;;;6243941;23;19928;-77
2022/03/25 06:03:05;;;;;;;16.08;5.93;;;11.00;38.40;;;;;;6242458;23;20024;-79
2022/03/25 06:05:31;;;;;;;18.45;7.97;;;11.20;37.90;;;;;;6241863;23;20001;-80
2022/03/25 06:07:57;;;;;;;;;;;11.50;37.50;;;;;;6243057;23;20011;-77
2022/03/25 06:10:23;;;;;;;22.05;7.75;;;11.60;37.40;;;;;;6220419;23;19888;-78
2022/03/25 06:12:49;;;;;;;17.85;7.22;;;11.80;37.10;;;;;;6220595;23;20048;-77
2022/03/25 06:15:15;;;;;;;;;;;12.20;36.60;;;;;;6218360;23;20008;-80
2022/03/25 06:17:51;;;;;;;15.48;7.10;;;12.50;35.60;;;;;;6221987;23;19947;-80
2022/03/25 06:20:19;;;;;;;27.58;6.90;;;13.00;35.50;;;;;;6217081;23;20015;-80
2022/03/25 06:22:45;;;;;;;12.40;5.47;;;13.50;34.20;;;;;;6182191;23;20063;-80
2022/03/25 06:25:11;;;;;;;;;;;13.90;32.50;;;;;;6180011;23;20025;-81
2022/03/25 06:27:48;;;;;;;13.70;6.03;;;14.20;31.40;;;;;;6147063;23;19995;-81
2022/03/25 06:30:14;;;;;;;16.27;6.70;;;14.70;31.20;;;;;;6147812;23;20240;-85
2022/03/25 06:32:40;;;;;;;;;;;15.20;30.40;;;;;;6122239;23;20006;-87
2022/03/25 06:35:07;;;;;;;13.52;4.60;;;15.50;29.50;;;;;;6148519;23;19983;-86
2022/03/25 06:37:34;;;;;;;17.20;4.80;;;15.90;29.20;;;;;;6148453;23;20002;-88
2022/03/25 06:40:00;;;;;;;20.23;5.30;;;16.40;28.30;;;;;;6148269;23;20016;-87
2022/03/25 06:42:25;;;;;;;16.77;4.70;;;16.90;27.80;;;;;;6148426;23;20013;-85
2022/03/25 06:44:51;;;;;;;11.07;3.40;;;17.50;26.60;;;;;;6148131;23;20043;-83
2022/03/25 06:47:17;;;;;;;9.85;4.07;;;18.10;26.00;;;;;;6122320;23;20081;-85
2022/03/25 06:49:43;;;;;;;11.40;4.60;;;18.70;25.50;;;;;;6122072;23;20044;-83
2022/03/25 06:52:09;;;;;;;11.35;4.82;;;19.20;24.50;;;;;;6147810;23;20020;-82
2022/03/25 06:54:35;;;;;;;17.42;4.55;;;19.80;23.70;;;;;;6148291;23;20443;-82
2022/03/25 06:57:01;;;;;;;8.10;4.10;;;20.10;22.80;;;;;;6121684;23;20068;-83
2022/03/25 06:59:27;;;;;;;14.13;5.45;;;20.60;22.50;;;;;;6146629;23;20013;-84
2022/03/25 07:01:53;;;;;;;10.65;5.43;;;21.00;21.60;;;;;;6148235;23;20001;-83
2022/03/25 07:04:19;;;;;;;14.65;5.97;;;21.40;21.00;;;;;;6121562;23;20009;-84
2022/03/25 07:06:48;;;;;;;13.93;6.15;;;21.60;20.80;;;;;;6148369;23;20015;-84
2022/03/25 07:09:14;;;;;;;15.65;6.25;;;21.40;21.00;;;;;;6147915;23;20009;-83
2022/03/25 07:11:41;;;;;;;14.98;6.07;;;21.50;21.00;;;;;;6147186;23;20009;-83
2022/03/25 07:14:07;;;;;;;12.27;6.72;;;22.00;20.40;;;;;;6148341;23;20008;-85
2022/03/25 07:16:32;;;;;;;15.73;6.55;;;22.00;20.20;;;;;;6147669;23;20076;-84
2022/03/25 07:19:01;;;;;;;17.25;6.35;;;22.00;20.30;;;;;;6121979;23;20013;-83
2022/03/25 07:21:26;;;;;;;20.40;7.72;;;22.00;20.40;;;;;;6121547;23;20010;-84
2022/03/25 07:23:52;;;;;;;15.30;7.05;;;22.30;19.90;;;;;;6147935;23;20029;-84
2022/03/25 07:26:18;;;;;;;14.82;7.43;;;22.40;20.10;;;;;;6134586;23;20020;-84
2022/03/25 07:28:44;;;;;;;20.42;8.00;;;22.60;19.30;;;;;;6177846;23;20011;-84
2022/03/25 07:31:09;;;;;;;14.65;7.13;;;22.60;19.20;;;;;;6150866;23;20013;-82
2022/03/25 07:33:36;;;;;;;11.77;7.18;;;22.50;19.20;;;;;;6151529;23;20005;-84
2022/03/25 07:36:02;;;;;;;17.58;6.88;;;22.50;19.10;;;;;;6177735;23;20396;-85
2022/03/25 07:38:28;;;;;;;14.68;7.47;;;22.70;19.10;;;;;;6151075;23;20004;-85
2022/03/25 07:40:55;;;;;;;15.82;7.95;;;22.90;18.90;;;;;;6151355;23;20009;-84
2022/03/25 07:43:22;;;;;;;16.02;8.45;;;23.10;18.60;;;;;;6150883;23;20013;-83
2022/03/25 07:45:48;;;;;;;13.50;7.05;;;23.20;18.50;;;;;;6177385;23;20076;-84
2022/03/25 07:48:14;;;;;;;16.92;8.30;;;23.00;18.60;;;;;;6177647;23;20107;-84
2022/03/25 07:50:39;;;;;;;17.20;8.75;;;23.10;18.40;;;;;;6151648;23;20101;-85
2022/03/25 07:53:05;;;;;;;16.05;8.25;;;23.30;18.30;;;;;;6177813;23;20082;-85
2022/03/25 07:55:31;;;;;;;13.55;7.63;;;23.50;18.10;;;;;;6176970;23;20001;-85
2022/03/25 07:57:57;;;;;;;12.15;7.85;;;23.50;17.80;;;;;;6176994;23;20008;-85
2022/03/25 08:00:24;;;;;;;18.92;8.00;;;23.50;17.70;;;;;;6177433;23;20096;-84
2022/03/25 08:02:53;;;;;;;12.18;7.65;;;23.50;17.60;;;;;;6177955;23;20481;-85
2022/03/25 08:05:20;;;;;;;23.85;8.73;;;23.60;18.20;;;;;;6177407;23;20021;-84
2022/03/25 08:07:52;;;;;;;19.30;7.82;;;23.90;17.40;;;;;;6177373;23;20035;-85
2022/03/25 08:10:29;;;;;;;12.88;7.53;;;24.30;17.30;;;;;;6176307;23;20007;-83
2022/03/25 08:12:56;;;;;;;16.95;8.25;;;23.80;17.90;;;;;;6176801;23;20016;-84
2022/03/25 08:15:23;;;;;;;14.93;8.15;;;23.80;17.80;;;;;;6150985;23;20009;-83
2022/03/25 08:18:03;;;;;;;13.45;7.57;;;24.00;18.00;;;;;;6177140;23;20001;-83
2022/03/25 08:20:37;;;;;;;16.35;8.27;;;24.10;17.80;;;;;;6177067;23;20015;-83
2022/03/25 08:23:05;;;;;;;16.58;7.88;;;24.50;17.30;;;;;;6151149;23;20009;-83
2022/03/25 08:28:16;;;;;;;16.65;9.15;;;24.10;17.20;;;;;;6176880;23;20358;-84
2022/03/25 08:30:43;;;;;;;16.00;7.50;;;24.00;17.50;;;;;;6150966;23;20019;-84
2022/03/25 08:33:09;;;;;;;14.75;7.63;;;24.00;17.30;;;;;;6177134;23;20338;-85
2022/03/25 08:35:36;;;;;;;16.77;7.57;;;23.90;17.50;;;;;;6177271;23;20013;-85
2022/03/25 08:38:02;;;;;;;16.85;8.02;;;23.90;17.60;;;;;;6177283;23;20001;-82
2022/03/25 08:40:29;;;;;;;18.20;8.02;;;23.70;17.70;;;;;;6149538;23;20068;-84
2022/03/25 08:42:55;;;;;;;16.00;7.63;;;23.50;18.00;;;;;;6177453;23;20008;-83
2022/03/25 08:45:22;;;;;;;19.20;8.40;;;23.40;18.10;;;;;;6176823;23;20067;-84
2022/03/25 08:47:48;;;;;;;17.48;8.15;;;23.20;18.30;;;;;;6150807;23;20510;-85
2022/03/25 08:50:16;;;;;;;14.50;8.18;;;23.20;18.70;;;;;;6176545;23;20005;-84
2022/03/25 08:52:43;;;;;;;17.25;8.30;;;23.30;18.70;;;;;;6151014;23;20005;-84
2022/03/25 08:55:10;;;;;;;17.38;8.55;;;23.50;18.50;;;;;;6176846;23;20068;-84
2022/03/25 08:57:37;;;;;;;13.55;8.55;;;23.40;18.60;;;;;;6177088;23;20572;-85
2022/03/25 09:00:06;;;;;;;21.02;7.47;;;23.20;18.60;;;;;;6150808;23;20012;-83
2022/03/25 09:02:32;;;;;;;15.43;9.10;;;23.40;18.70;;;;;;6150628;23;20029;-82
2022/03/25 09:04:58;;;;;;;13.30;8.00;;;23.70;18.90;;;;;;6152719;23;20017;-84
2022/03/25 09:07:23;;;;;;;20.27;8.23;;;23.80;19.00;;;;;;6178794;23;20324;-83
2022/03/25 09:09:49;;;;;;;16.75;7.70;;;24.00;19.20;;;;;;6178732;23;20001;-83
2022/03/25 09:12:14;;;;;;;11.95;7.72;;;24.30;18.60;;;;;;6152044;23;20020;-82
2022/03/25 09:14:40;;;;;;;18.52;8.85;;;24.50;18.50;;;;;;6152200;23;20013;-83
2022/03/25 09:17:06;;;;;;;15.13;9.38;;;24.40;18.00;;;;;;6178879;23;20012;-83
2022/03/25 09:19:32;;;;;;;14.30;7.30;;;24.70;17.60;;;;;;6178853;23;20011;-82
2022/03/25 09:21:58;;;;;;;17.08;7.43;;;24.90;17.50;;;;;;6152285;23;20005;-82
2022/03/25 09:24:23;;;;;;;17.88;7.43;;;25.00;17.20;;;;;;6178184;23;20047;-83
2022/03/25 09:26:49;;;;;;;11.05;7.07;;;25.00;17.10;;;;;;6178368;23;20017;-83
2022/03/25 09:29:14;;;;;;;15.60;8.07;;;25.10;17.60;;;;;;6152438;23;20009;-82
2022/03/25 09:31:42;;;;;;;15.40;8.80;;;25.30;17.60;;;;;;6178935;23;20032;-84
2022/03/25 09:36:53;;;;;;;15.10;7.32;;;25.30;17.50;;;;;;6178669;23;20047;-82
2022/03/25 09:39:19;;;;;;;12.48;7.57;;;25.60;16.80;;;;;;6178502;23;20013;-83
2022/03/25 09:41:45;;;;;;;16.55;9.00;;;25.40;17.00;;;;;;6152676;23;20342;-83
2022/03/25 09:44:15;;;;;;;18.95;9.63;;;25.40;17.50;;;;;;6151570;23;20009;-83
2022/03/25 09:46:42;;;;;;;14.25;8.30;;;25.60;17.50;;;;;;6178700;23;20005;-82
2022/03/25 09:49:12;;;;;;;15.35;8.43;;;25.70;16.90;;;;;;6178366;23;20011;-82
2022/03/25 09:51:38;;;;;;;17.45;8.48;;;25.70;17.20;;;;;;6152073;23;20447;-82
2022/03/25 09:54:06;;;;;;;16.13;7.88;;;25.90;16.80;;;;;;6177738;23;20005;-83
2022/03/25 09:56:34;;;;;;;11.60;7.93;;;25.80;17.00;;;;;;6178157;23;20738;-84
2022/03/25 09:59:00;;;;;;;13.98;7.95;;;26.00;16.50;;;;;;6178250;23;20147;-83
2022/03/25 10:01:26;;;;;;;13.55;7.45;;;26.20;16.40;;;;;;6178610;23;20338;-83
2022/03/25 10:03:52;;;;;;;13.20;7.38;;;26.20;16.30;;;;;;6178574;23;20001;-81
2022/03/25 10:06:18;;;;;;;17.48;7.82;;;26.20;16.00;;;;;;6178490;23;20009;-82
2022/03/25 10:08:59;;;;;;;15.73;7.72;;;26.30;15.90;;;;;;6151046;23;20009;-82
2022/03/25 10:11:32;;;;;;;12.95;6.72;;;26.60;16.10;;;;;;6177759;23;20488;-81
2022/03/25 10:14:23;;;;;;;20.55;7.97;;;26.60;16.10;;;;;;6178466;23;20008;-82
2022/03/25 10:16:50;;;;;;;12.25;7.22;;;26.90;15.70;;;;;;6178175;23;20005;-81
2022/03/25 10:19:21;;;;;;;12.65;6.43;;;26.80;15.60;;;;;;6178532;23;20009;-81
2022/03/25 10:21:55;;;;;;;11.80;6.70;;;27.10;15.70;;;;;;6178350;23;20691;-81
2022/03/25 10:24:39;;;;;;;12.02;7.30;;;27.50;15.40;;;;;;6151199;23;20043;-81
2022/03/25 10:27:06;;;;;;;13.02;6.53;;;27.20;15.70;;;;;;6151598;23;20029;-82
2022/03/25 10:29:34;;;;;;;12.82;7.60;;;27.00;15.80;;;;;;6178717;23;20001;-83
2022/03/25 10:32:10;;;;;;;20.60;7.20;;;26.90;15.90;;;;;;6151920;23;20005;-86
2022/03/25 10:34:38;;;;;;;10.95;6.38;;;26.50;15.70;;;;;;6151245;23;20088;-90
2022/03/25 10:37:06;;;;;;;14.93;7.22;;;25.50;15.90;;;;;;6152201;23;20091;-87
2022/03/25 10:39:33;;;;;;;12.20;7.05;;;24.30;17.00;;;;;;6178025;23;20009;-86
2022/03/25 10:42:04;;;;;;;14.05;5.85;;;23.40;18.10;;;;;;6151153;23;20009;-87
2022/03/25 10:44:40;;;;;;;13.93;5.38;;;22.80;18.70;;;;;;6178495;23;20009;-87
2022/03/25 10:47:14;;;;;;;9.85;5.30;;;22.50;19.00;;;;;;6178309;23;20005;-87
2022/03/25 10:49:43;;;;;;;8.77;5.63;;;22.20;19.10;;;;;;6180537;23;20084;-83
2022/03/25 10:52:32;;;;;;;18.05;6.53;;;21.90;19.30;;;;;;6182372;23;20005;-83
2022/03/25 10:55:20;;;;;;;10.95;6.38;;;21.60;19.40;;;;;;6189986;23;19997;-82
2022/03/25 10:57:58;;;;;;;12.15;4.78;;;21.60;19.60;;;;;;6200823;23;20001;-81
2022/03/25 11:00:24;;;;;;;18.90;5.47;;;21.30;19.40;;;;;;6205975;23;20025;-82
2022/03/25 11:02:50;;;;;;;10.48;5.15;;;21.10;19.90;;;;;;6193260;23;20079;-82
2022/03/25 11:05:16;;;;;;;14.88;6.03;;;20.90;20.40;;;;;;6167767;23;20018;-81
2022/03/25 11:07:44;;;;;;;10.85;5.35;;;20.80;20.60;;;;;;6185294;23;20009;-81
2022/03/25 11:10:13;;;;;;;16.70;5.75;;;20.80;20.80;;;;;;6167445;23;20040;-81
2022/03/25 11:12:43;;;;;;;11.32;4.53;;;20.70;20.40;;;;;;6175359;23;20010;-81
2022/03/25 11:15:13;;;;;;;10.48;5.55;;;20.50;20.40;;;;;;6171062;23;20021;-80
2022/03/25 11:17:41;;;;;;;17.17;6.38;;;20.30;20.40;;;;;;6214089;23;20001;-78
2022/03/25 11:20:10;;;;;;;9.35;5.30;;;20.00;21.20;;;;;;6214799;23;19997;-78
2022/03/25 11:22:41;;;;;;;11.98;5.50;;;19.70;21.80;;;;;;6184862;23;20020;-77
2022/03/25 18:21:12;;;;;;;7.20;2.35;;;15.10;30.60;;;;;;6201962;23;20029;-79
2022/03/25 18:23:37;;;;;;;;;;;15.00;30.40;;;;;;6186256;23;20017;-79
2022/03/25 18:26:03;;;;;;;;;;;15.00;30.50;;;;;;6184963;23;19928;-79
2022/03/25 18:28:29;;;;;;;;;;;14.90;30.60;;;;;;6211760;23;19888;-78
2022/03/25 18:30:55;;;;;;;;;;;14.90;30.80;;;;;;6186868;23;19908;-80
2022/03/25 18:33:21;;;;;;;;;;;14.90;31.00;;;;;;6212426;23;19907;-80
2022/03/25 18:35:47;;;;;;;;;;;14.70;31.20;;;;;;6184480;23;19900;-80
2022/03/25 18:38:13;;;;;;;;;;;14.70;31.20;;;;;;6184333;23;19900;-80
2022/03/25 18:40:39;;;;;;;;;;;14.80;31.30;;;;;;6211032;23;19907;-80
2022/03/25 18:43:08;;;;;;;;;;;14.60;31.40;;;;;;6209856;23;19912;-79
2022/03/25 18:45:34;;;;;;;;;;;14.60;31.60;;;;;;6210832;23;19956;-80
2022/03/25 18:48:00;;;;;;;;;;;14.60;31.70;;;;;;6183531;23;19888;-78
2022/03/25 18:50:26;;;;;;;;;;;14.50;31.80;;;;;;6183534;23;19911;-79
2022/03/25 18:52:52;;;;;;;;;;;14.50;31.80;;;;;;6208690;23;19904;-79
2022/03/25 18:55:21;;;;;;;;;;;14.50;31.90;;;;;;6183366;23;19927;-79
2022/03/25 18:57:47;;;;;;;;;;;14.50;32.00;;;;;;6208764;23;20281;-79
2022/03/25 19:00:13;;;;;;;;;;;14.40;32.00;;;;;;6206839;23;19900;-80
2022/03/25 19:02:39;;;;;;;;;;;14.40;32.10;;;;;;6207799;23;19947;-79
2022/03/25 19:05:05;;;;;;;;;;;14.40;32.00;;;;;;6206448;23;19927;-79
2022/03/25 19:07:31;;;;;;;;;;;14.40;31.90;;;;;;6208498;23;19904;-80
2022/03/25 19:09:56;;;;;;;;;;;14.40;32.00;;;;;;6182249;23;19888;-80
2022/03/25 19:12:22;;;;;;;;;;;14.40;32.00;;;;;;6206971;23;19924;-79
2022/03/25 19:14:48;;;;;;;;;;;14.20;32.10;;;;;;6180863;23;19904;-79
2022/03/25 19:17:14;;;;;;;;;;;14.30;32.20;;;;;;6206540;23;19904;-79
2022/03/25 19:19:41;;;;;;;;;;;14.20;32.30;;;;;;6207172;23;19944;-80
2022/03/25 19:22:08;;;;;;;;;;;14.10;32.40;;;;;;6207449;23;19900;-79
2022/03/25 19:24:34;;;;;;;;;;;14.20;32.50;;;;;;6206548;23;19900;-80
2022/03/25 19:27:00;;;;;;;;;;;14.00;32.60;;;;;;6207533;23;19928;-79
2022/03/25 19:29:26;;;;;;;;;;;14.00;32.80;;;;;;6181384;23;19904;-79
2022/03/25 19:31:51;;;;;;;;;;;13.90;32.80;;;;;;6206863;23;19900;-80
2022/03/25 19:34:17;;;;;;;;;;;13.80;33.00;;;;;;6180742;23;19900;-79
2022/03/25 19:36:43;;;;;;;;;;;13.70;33.20;;;;;;6206605;23;19900;-79
2022/03/25 19:39:09;;;;;;;;;;;13.70;33.30;;;;;;6194997;23;19884;-80
2022/03/25 19:41:35;;;;;;;;;;;13.60;33.40;;;;;;6207832;23;20057;-80
2022/03/25 19:44:01;;;;;;;;;;;13.60;33.60;;;;;;6183196;23;19900;-79
2022/03/25 19:46:28;;;;;;;;;;;13.60;33.50;;;;;;6187276;23;19958;-80
2022/03/25 19:48:53;;;;;;;;;;;13.40;33.70;;;;;;6212754;23;19923;-79
2022/03/25 19:51:19;;;;;;;;;;;13.30;34.10;;;;;;6212327;23;19904;-80
2022/03/25 19:53:45;;;;;;;;;;;13.30;34.30;;;;;;6186489;23;20327;-79
2022/03/25 19:56:11;;;;;;;;;;;13.10;34.50;;;;;;6212462;23;19904;-80
2022/03/25 19:58:37;;;;;;;;;;;13.10;34.50;;;;;;6212374;23;20239;-80
2022/03/25 20:01:05;;;;;;;;;;;13.00;34.60;;;;;;6212576;23;19896;-80
2022/03/25 20:03:31;;;;;;;;;;;13.00;34.80;;;;;;6212576;23;19924;-79
2022/03/25 20:05:57;;;;;;;;;;;13.00;35.00;;;;;;6189137;23;19896;-79
2022/03/25 20:08:23;;;;;;;;;;;12.90;35.30;;;;;;6189515;23;19896;-77
2022/03/25 20:10:48;;;;;;;;;;;12.80;35.50;;;;;;6214843;23;19911;-79
2022/03/25 20:13:14;;;;;;;;;;;12.80;35.70;;;;;;6189535;23;19904;-79
2022/03/25 20:15:40;;;;;;;;;;;12.70;35.80;;;;;;6189478;23;19911;-79
2022/03/25 20:18:06;;;;;;;;;;;12.70;35.90;;;;;;6189249;23;19928;-81
2022/03/25 20:20:42;;;;;;;;;;;;;;;;;;;;;
2022/03/25 21:37:10;;;;;;;;;;;10.70;41.20;;;;;;6184208;23;19915;-79
2022/03/25 21:39:35;;;;;;;;;;;10.60;41.40;;;;;;6206394;23;19904;-79
2022/03/25 21:42:01;;;;;;;;;;;10.60;42.00;;;;;;6186173;23;19923;-80
2022/03/25 21:44:27;;;;;;;;;;;10.50;42.20;;;;;;6213591;23;19916;-79
2022/03/25 21:46:52;;;;;;;;;;;10.50;42.60;;;;;;6211570;23;19908;-79
2022/03/25 21:49:18;;;;;;;;;;;10.30;43.00;;;;;;6187857;23;19900;-80
2022/03/25 21:51:44;;;;;;;;;;;10.30;43.20;;;;;;6213468;23;19900;-80
2022/03/25 21:54:09;;;;;;;;;;;10.40;43.10;;;;;;6213801;23;19911;-79
2022/03/25 21:56:35;;;;;;;;;;;10.30;42.90;;;;;;6190621;23;19896;-79
2022/03/25 21:59:01;;;;;;;;;;;10.40;42.90;;;;;;6210944;23;19904;-79
2022/03/25 22:01:26;;;;;;;;;;;10.40;43.00;;;;;;6207070;23;19932;-79
2022/03/25 22:03:53;;;;;;;;;;;10.30;42.90;;;;;;6209582;23;19932;-80
2022/03/25 22:06:19;;;;;;;;;;;10.30;43.00;;;;;;6214572;23;19896;-78
2022/03/25 22:08:44;;;;;;;;;;;10.20;43.20;;;;;;6216274;23;19888;-79
2022/03/25 22:11:10;;;;;;;;;;;10.30;43.20;;;;;;6203677;23;19904;-77
2022/03/25 22:13:36;;;;;;;;;;;10.20;43.20;;;;;;6216676;23;19896;-75
2022/03/25 22:16:02;;;;;;;;;;;10.20;43.50;;;;;;6216484;23;19932;-77
2022/03/25 22:18:28;;;;;;;;;;;10.10;43.40;;;;;;6191006;23;19908;-78
2022/03/25 23:21:40;;;;;;;;;;;10.10;46.10;;;;;;6182376;23;20377;-78
2022/03/25 23:24:06;;;;;;;;;;;10.00;46.90;;;;;;6214274;23;19892;-79
2022/03/25 23:26:32;;;;;;;;;;;9.90;47.50;;;;;;6214238;23;19896;-79
2022/03/25 23:28:58;;;;;;;;;;;9.80;47.80;;;;;;6215513;23;19888;-80
2022/03/25 23:31:25;;;;;;;;;;;9.70;48.20;;;;;;6215343;23;19888;-80
2022/03/25 23:33:51;;;;;;;;;;;9.60;48.60;;;;;;6215102;23;19945;-77
2022/03/25 23:36:17;;;;;;;;;;;9.40;48.90;;;;;;6215467;23;19888;-80
2022/03/25 23:38:43;;;;;;;;;;;9.30;49.50;;;;;;6189036;23;19911;-79
2022/03/25 23:41:09;;;;;;;;;;;9.20;50.00;;;;;;6215101;23;19905;-80
2022/03/25 23:43:34;;;;;;;;;;;9.10;50.40;;;;;;6215194;23;20062;-81
2022/03/25 23:46:00;;;;;;;;;;;9.00;50.70;;;;;;6215339;23;19940;-80
2022/03/25 23:48:26;;;;;;;;;;;8.90;51.20;;;;;;6214873;23;19894;-81
2022/03/25 23:50:51;;;;;;;;;;;8.90;51.20;;;;;;6215056;23;19895;-80
2022/03/25 23:53:17;;;;;;;;;;;8.80;50.70;;;;;;6188926;23;19888;-80
2022/03/25 23:55:43;;;;;;;;;;;8.70;50.80;;;;;;6183772;23;19903;-78
2022/03/25 23:58:09;;;;;;;;;;;8.50;51.00;;;;;;6183556;23;19905;-79
